Cataract, WI

9:45 AM CDT on September 01, 2014 (GMT -0500)
Sparta-Fort McCoy | Change Station
CLOSE
Current Station
Airport
Location: Sparta,
Elevation: 837 ft
Nearby Weather Stations

Elev 837 ft 43.96 °N, 90.74 °W | Updated 10 minutes ago

Heavy Rain
Heavy Rain
64 °F
Feels Like 64 °F
N
6
Wind Variable Wind from SSW

Today
High -- | Low -- °F
--% Chance of Precip.
Yesterday
High -- | Low -- °F
Precip. -- in
6:26 AM 7:39 PM
Waxing Crescent, 41% visible
Pressure 29.69 in
Visibility 1.8 miles
Clouds Scattered Clouds 1000 ft
Mostly Cloudy 1700 ft
Overcast 2200 ft
Dew Point 63 °F
Humidity 94%
Rainfall 0.37 in
Snow Depth Not available.
UV 1 out of 12
Pollen 3.70 out of 12
Air Quality Not available.
Flu Activity Not available.
METAR KCMY 011435Z AUTO 20005KT 1 3/4SM +RA SCT010 BKN017 OVC022 18/17 A2969 RMK AO2 VIS 1/2V5 P0017 T01800170

More Conditions Fewer Conditions

Pressure 29.69 in
Visibility 1.8 miles
Clouds Scattered Clouds 1000 ft
Mostly Cloudy 1700 ft
Overcast 2200 ft
Dew Point 63 °F
Humidity 94%
Rainfall 0.37 in
Snow Depth Not available.
UV 1 out of 12
Pollen 3.70 out of 12
Air Quality Not available.
Flu Activity Not available.
METAR KCMY 011435Z AUTO 20005KT 1 3/4SM +RA SCT010 BKN017 OVC022 18/17 A2969 RMK AO2 VIS 1/2V5 P0017 T01800170

More Conditions Fewer Conditions

10-Day Weather Forecast

Almanac

Astronomy

Sep. 01, 2014 Rise Set
Actual Time 6:26 AM CDT 7:39 PM CDT
Civil Twilight 5:56 AM CDT 8:09 PM CDT
Nautical Twilight 5:20 AM CDT 8:44 PM CDT
Astronomical Twilight 4:43 AM CDT 9:22 PM CDT
Moon 1:26 PM CDT 11:26 PM CDT
Length of Visible Light 14h 12m
Length of Day
13h 12m
Tomorrow will be 2m 56s shorter.
Waxing Crescent, 41% of the Moon is Illuminated
Today
Waxing Crescent
Sep 2
First Quarter
Sep 8
Full
Sep 15
Last Quarter
Sep 24
New

Today's Extremes

State Highs State Lows

Community

WunderPhotos

Upload Photos

1,749,253 photos uploaded!

Nearby

Snow Depth

Station Depth Elevation
No new snow has been reported.

Earthquake Activity

City Distance Mag. Time & Date
No recent earthquake activity has been reported nearby.
Minimum magnitude displayed is 2.5.

Coastal Water Temperatures

Place Temperature
No Stations Reporting

Nearby Weather Stations